sensor_id;sensor_type;location;lat;lon;timestamp;temperature;humidity
68701;DHT22;55682;51.114;5.882;2023-07-13T00:02:24;18.81;58.67
68701;DHT22;55682;51.114;5.882;2023-07-13T00:04:52;18.78;58.76
68701;DHT22;55682;51.114;5.882;2023-07-13T00:07:18;18.66;59.13
68701;DHT22;55682;51.114;5.882;2023-07-13T00:09:48;18.62;59.21
68701;DHT22;55682;51.114;5.882;2023-07-13T00:12:31;18.58;59.41
68701;DHT22;55682;51.114;5.882;2023-07-13T00:14:59;18.55;59.51
68701;DHT22;55682;51.114;5.882;2023-07-13T00:17:26;18.51;59.70
68701;DHT22;55682;51.114;5.882;2023-07-13T00:19:53;18.51;59.73
68701;DHT22;55682;51.114;5.882;2023-07-13T00:22:19;18.49;59.90
68701;DHT22;55682;51.114;5.882;2023-07-13T00:24:45;18.42;60.12
68701;DHT22;55682;51.114;5.882;2023-07-13T00:27:11;18.41;60.31
68701;DHT22;55682;51.114;5.882;2023-07-13T00:29:38;18.35;60.52
68701;DHT22;55682;51.114;5.882;2023-07-13T00:32:05;18.35;60.61
68701;DHT22;55682;51.114;5.882;2023-07-13T00:34:32;18.35;60.74
68701;DHT22;55682;51.114;5.882;2023-07-13T00:36:58;18.34;60.96
68701;DHT22;55682;51.114;5.882;2023-07-13T00:39:24;18.25;61.31
68701;DHT22;55682;51.114;5.882;2023-07-13T00:41:50;18.27;61.38
68701;DHT22;55682;51.114;5.882;2023-07-13T00:44:18;18.20;61.76
68701;DHT22;55682;51.114;5.882;2023-07-13T00:46:44;18.27;61.63
68701;DHT22;55682;51.114;5.882;2023-07-13T00:49:14;18.20;61.86
68701;DHT22;55682;51.114;5.882;2023-07-13T00:51:45;18.17;62.04
68701;DHT22;55682;51.114;5.882;2023-07-13T00:54:19;18.14;62.22
68701;DHT22;55682;51.114;5.882;2023-07-13T00:56:51;18.11;62.47
68701;DHT22;55682;51.114;5.882;2023-07-13T00:59:20;18.17;62.24
68701;DHT22;55682;51.114;5.882;2023-07-13T01:01:48;18.11;62.47
68701;DHT22;55682;51.114;5.882;2023-07-13T01:04:14;18.11;62.49
68701;DHT22;55682;51.114;5.882;2023-07-13T01:06:42;18.04;62.73
68701;DHT22;55682;51.114;5.882;2023-07-13T01:09:11;17.95;63.02
68701;DHT22;55682;51.114;5.882;2023-07-13T01:11:37;18.00;63.06
68701;DHT22;55682;51.114;5.882;2023-07-13T01:14:04;17.92;63.50
68701;DHT22;55682;51.114;5.882;2023-07-13T01:16:36;17.89;63.65
68701;DHT22;55682;51.114;5.882;2023-07-13T01:19:22;17.89;63.84
68701;DHT22;55682;51.114;5.882;2023-07-13T01:21:53;17.89;63.92
68701;DHT22;55682;51.114;5.882;2023-07-13T01:24:18;17.87;64.05
68701;DHT22;55682;51.114;5.882;2023-07-13T01:26:44;17.87;64.18
68701;DHT22;55682;51.114;5.882;2023-07-13T01:29:10;17.81;64.37
68701;DHT22;55682;51.114;5.882;2023-07-13T01:31:38;17.81;64.44
68701;DHT22;55682;51.114;5.882;2023-07-13T01:34:04;17.75;64.63
68701;DHT22;55682;51.114;5.882;2023-07-13T01:36:30;17.66;64.87
68701;DHT22;55682;51.114;5.882;2023-07-13T01:38:56;17.67;64.92
68701;DHT22;55682;51.114;5.882;2023-07-13T01:41:22;17.67;64.95
68701;DHT22;55682;51.114;5.882;2023-07-13T01:43:48;17.63;65.14
68701;DHT22;55682;51.114;5.882;2023-07-13T01:46:13;17.53;65.56
68701;DHT22;55682;51.114;5.882;2023-07-13T01:48:39;17.59;65.33
68701;DHT22;55682;51.114;5.882;2023-07-13T01:51:05;17.58;65.41
68701;DHT22;55682;51.114;5.882;2023-07-13T01:53:31;17.51;65.73
68701;DHT22;55682;51.114;5.882;2023-07-13T01:55:56;17.49;65.91
68701;DHT22;55682;51.114;5.882;2023-07-13T01:58:22;17.39;66.32
68701;DHT22;55682;51.114;5.882;2023-07-13T02:00:49;17.37;66.52
68701;DHT22;55682;51.114;5.882;2023-07-13T02:03:15;17.41;66.54
68701;DHT22;55682;51.114;5.882;2023-07-13T02:05:44;17.40;66.72
68701;DHT22;55682;51.114;5.882;2023-07-13T02:08:10;17.39;66.88
68701;DHT22;55682;51.114;5.882;2023-07-13T02:10:37;17.35;66.98
68701;DHT22;55682;51.114;5.882;2023-07-13T02:13:05;17.32;67.08
68701;DHT22;55682;51.114;5.882;2023-07-13T02:15:31;17.26;67.33
68701;DHT22;55682;51.114;5.882;2023-07-13T02:17:57;17.28;67.39
68701;DHT22;55682;51.114;5.882;2023-07-13T02:20:24;17.22;67.50
68701;DHT22;55682;51.114;5.882;2023-07-13T02:22:52;17.30;67.42
68701;DHT22;55682;51.114;5.882;2023-07-13T02:25:20;17.23;67.66
68701;DHT22;55682;51.114;5.882;2023-07-13T02:27:48;17.17;68.07
68701;DHT22;55682;51.114;5.882;2023-07-13T02:30:16;17.13;68.23
68701;DHT22;55682;51.114;5.882;2023-07-13T02:32:42;17.06;68.59
68701;DHT22;55682;51.114;5.882;2023-07-13T02:35:09;17.07;68.60
68701;DHT22;55682;51.114;5.882;2023-07-13T02:37:37;17.18;68.42
68701;DHT22;55682;51.114;5.882;2023-07-13T02:40:03;16.96;69.23
68701;DHT22;55682;51.114;5.882;2023-07-13T02:42:35;16.99;69.18
68701;DHT22;55682;51.114;5.882;2023-07-13T02:45:01;16.91;69.42
68701;DHT22;55682;51.114;5.882;2023-07-13T02:47:26;16.93;69.42
68701;DHT22;55682;51.114;5.882;2023-07-13T02:49:52;16.94;69.45
68701;DHT22;55682;51.114;5.882;2023-07-13T02:52:18;16.84;69.90
68701;DHT22;55682;51.114;5.882;2023-07-13T02:54:44;16.86;69.87
68701;DHT22;55682;51.114;5.882;2023-07-13T02:57:10;16.86;70.06
68701;DHT22;55682;51.114;5.882;2023-07-13T02:59:36;16.93;69.81
68701;DHT22;55682;51.114;5.882;2023-07-13T03:02:03;16.88;70.17
68701;DHT22;55682;51.114;5.882;2023-07-13T03:04:29;16.82;70.47
68701;DHT22;55682;51.114;5.882;2023-07-13T03:06:55;16.78;70.57
68701;DHT22;55682;51.114;5.882;2023-07-13T03:09:26;16.82;70.51
68701;DHT22;55682;51.114;5.882;2023-07-13T03:11:54;16.77;70.67
68701;DHT22;55682;51.114;5.882;2023-07-13T03:14:31;16.81;70.72
68701;DHT22;55682;51.114;5.882;2023-07-13T03:16:58;16.82;70.69
68701;DHT22;55682;51.114;5.882;2023-07-13T03:19:27;16.86;70.64
68701;DHT22;55682;51.114;5.882;2023-07-13T03:21:54;16.84;70.76
68701;DHT22;55682;51.114;5.882;2023-07-13T03:24:20;16.78;70.95
68701;DHT22;55682;51.114;5.882;2023-07-13T03:26:46;16.76;71.22
68701;DHT22;55682;51.114;5.882;2023-07-13T03:29:12;16.73;71.26
68701;DHT22;55682;51.114;5.882;2023-07-13T03:31:38;16.72;71.49
68701;DHT22;55682;51.114;5.882;2023-07-13T03:34:04;16.69;71.60
68701;DHT22;55682;51.114;5.882;2023-07-13T03:36:31;16.67;71.65
68701;DHT22;55682;51.114;5.882;2023-07-13T03:39:02;16.71;71.77
68701;DHT22;55682;51.114;5.882;2023-07-13T03:41:37;16.71;71.83
68701;DHT22;55682;51.114;5.882;2023-07-13T03:44:03;16.69;72.02
68701;DHT22;55682;51.114;5.882;2023-07-13T03:46:29;16.75;71.91
68701;DHT22;55682;51.114;5.882;2023-07-13T03:48:56;16.74;72.01
68701;DHT22;55682;51.114;5.882;2023-07-13T03:51:22;16.74;72.03
68701;DHT22;55682;51.114;5.882;2023-07-13T03:53:48;16.80;71.85
68701;DHT22;55682;51.114;5.882;2023-07-13T03:56:16;16.84;71.84
68701;DHT22;55682;51.114;5.882;2023-07-13T03:58:46;16.79;71.91
68701;DHT22;55682;51.114;5.882;2023-07-13T04:01:20;16.86;71.84
68701;DHT22;55682;51.114;5.882;2023-07-13T04:03:46;17.06;71.20
68701;DHT22;55682;51.114;5.882;2023-07-13T04:06:27;17.35;70.10
68701;DHT22;55682;51.114;5.882;2023-07-13T04:09:00;17.46;69.84
68701;DHT22;55682;51.114;5.882;2023-07-13T04:11:29;17.73;68.87
68701;DHT22;55682;51.114;5.882;2023-07-13T04:13:57;17.99;67.97
68701;DHT22;55682;51.114;5.882;2023-07-13T04:16:23;18.20;67.25
68701;DHT22;55682;51.114;5.882;2023-07-13T04:18:50;18.54;66.24
68701;DHT22;55682;51.114;5.882;2023-07-13T04:21:17;18.94;64.88
68701;DHT22;55682;51.114;5.882;2023-07-13T04:23:43;19.24;63.73
68701;DHT22;55682;51.114;5.882;2023-07-13T04:26:08;19.50;62.81
68701;DHT22;55682;51.114;5.882;2023-07-13T04:28:34;19.86;61.79
68701;DHT22;55682;51.114;5.882;2023-07-13T04:31:01;20.19;60.48
68701;DHT22;55682;51.114;5.882;2023-07-13T04:33:27;20.33;59.74
68701;DHT22;55682;51.114;5.882;2023-07-13T04:35:54;20.11;60.24
68701;DHT22;55682;51.114;5.882;2023-07-13T04:38:25;20.15;60.70
68701;DHT22;55682;51.114;5.882;2023-07-13T04:40:55;20.40;60.03
68701;DHT22;55682;51.114;5.882;2023-07-13T04:43:21;20.55;59.49
68701;DHT22;55682;51.114;5.882;2023-07-13T04:45:46;20.76;58.86
68701;DHT22;55682;51.114;5.882;2023-07-13T04:48:12;21.00;58.41
68701;DHT22;55682;51.114;5.882;2023-07-13T04:50:38;21.31;57.42
68701;DHT22;55682;51.114;5.882;2023-07-13T04:53:04;21.64;56.36
68701;DHT22;55682;51.114;5.882;2023-07-13T04:55:31;21.95;55.57
68701;DHT22;55682;51.114;5.882;2023-07-13T04:57:58;22.17;55.02
68701;DHT22;55682;51.114;5.882;2023-07-13T05:00:27;22.48;53.92
68701;DHT22;55682;51.114;5.882;2023-07-13T05:02:57;22.52;53.54
68701;DHT22;55682;51.114;5.882;2023-07-13T05:05:24;22.09;54.10
68701;DHT22;55682;51.114;5.882;2023-07-13T05:07:49;21.32;56.26
68701;DHT22;55682;51.114;5.882;2023-07-13T05:10:15;20.65;58.70
68701;DHT22;55682;51.114;5.882;2023-07-13T05:12:41;20.10;60.76
68701;DHT22;55682;51.114;5.882;2023-07-13T05:15:07;19.74;62.37
68701;DHT22;55682;51.114;5.882;2023-07-13T05:17:33;19.45;63.55
68701;DHT22;55682;51.114;5.882;2023-07-13T05:19:59;19.47;64.05
68701;DHT22;55682;51.114;5.882;2023-07-13T05:22:25;19.62;63.79
68701;DHT22;55682;51.114;5.882;2023-07-13T05:24:50;19.83;63.37
68701;DHT22;55682;51.114;5.882;2023-07-13T05:27:16;19.97;62.93
68701;DHT22;55682;51.114;5.882;2023-07-13T05:29:42;20.02;62.96
68701;DHT22;55682;51.114;5.882;2023-07-13T05:32:08;20.06;62.43
68701;DHT22;55682;51.114;5.882;2023-07-13T05:34:33;19.85;63.15
68701;DHT22;55682;51.114;5.882;2023-07-13T05:36:59;19.69;63.96
68701;DHT22;55682;51.114;5.882;2023-07-13T05:39:25;19.63;64.36
68701;DHT22;55682;51.114;5.882;2023-07-13T05:41:53;19.41;64.95
68701;DHT22;55682;51.114;5.882;2023-07-13T05:44:18;19.31;65.46
68701;DHT22;55682;51.114;5.882;2023-07-13T05:46:45;19.21;66.21
68701;DHT22;55682;51.114;5.882;2023-07-13T05:49:11;19.20;66.29
68701;DHT22;55682;51.114;5.882;2023-07-13T05:51:37;19.13;66.58
68701;DHT22;55682;51.114;5.882;2023-07-13T05:54:03;19.13;66.63
68701;DHT22;55682;51.114;5.882;2023-07-13T05:56:28;19.20;66.54
68701;DHT22;55682;51.114;5.882;2023-07-13T05:58:55;19.37;65.75
68701;DHT22;55682;51.114;5.882;2023-07-13T06:01:21;19.39;65.93
68701;DHT22;55682;51.114;5.882;2023-07-13T06:03:49;19.60;65.16
68701;DHT22;55682;51.114;5.882;2023-07-13T06:06:16;19.84;64.26
68701;DHT22;55682;51.114;5.882;2023-07-13T06:08:42;19.85;64.03
68701;DHT22;55682;51.114;5.882;2023-07-13T06:11:14;19.91;64.37
68701;DHT22;55682;51.114;5.882;2023-07-13T06:13:40;20.05;64.02
68701;DHT22;55682;51.114;5.882;2023-07-13T06:16:07;20.20;63.31
68701;DHT22;55682;51.114;5.882;2023-07-13T06:18:35;20.27;62.80
68701;DHT22;55682;51.114;5.882;2023-07-13T06:21:16;20.34;62.93
68701;DHT22;55682;51.114;5.882;2023-07-13T06:23:44;20.42;62.60
68701;DHT22;55682;51.114;5.882;2023-07-13T06:26:10;20.40;62.50
68701;DHT22;55682;51.114;5.882;2023-07-13T06:28:36;20.31;63.12
68701;DHT22;55682;51.114;5.882;2023-07-13T06:31:08;20.49;62.82
68701;DHT22;55682;51.114;5.882;2023-07-13T06:33:35;20.63;62.77
68701;DHT22;55682;51.114;5.882;2023-07-13T06:36:03;20.96;61.57
68701;DHT22;55682;51.114;5.882;2023-07-13T06:38:29;20.91;60.86
68701;DHT22;55682;51.114;5.882;2023-07-13T06:40:55;20.76;61.75
68701;DHT22;55682;51.114;5.882;2023-07-13T06:43:20;20.88;61.37
68701;DHT22;55682;51.114;5.882;2023-07-13T06:45:48;20.73;62.08
68701;DHT22;55682;51.114;5.882;2023-07-13T06:48:16;20.81;62.08
68701;DHT22;55682;51.114;5.882;2023-07-13T06:50:43;20.87;61.72
68701;DHT22;55682;51.114;5.882;2023-07-13T06:53:10;20.70;62.04
68701;DHT22;55682;51.114;5.882;2023-07-13T06:55:36;20.58;62.60
68701;DHT22;55682;51.114;5.882;2023-07-13T06:58:02;20.62;62.95
68701;DHT22;55682;51.114;5.882;2023-07-13T07:00:28;20.71;62.88
68701;DHT22;55682;51.114;5.882;2023-07-13T07:02:54;20.91;62.57
68701;DHT22;55682;51.114;5.882;2023-07-13T07:05:21;21.01;61.68
68701;DHT22;55682;51.114;5.882;2023-07-13T07:07:51;21.00;61.86
68701;DHT22;55682;51.114;5.882;2023-07-13T07:10:19;20.96;61.96
68701;DHT22;55682;51.114;5.882;2023-07-13T07:12:45;21.02;61.44
68701;DHT22;55682;51.114;5.882;2023-07-13T07:15:12;20.86;62.24
68701;DHT22;55682;51.114;5.882;2023-07-13T07:17:38;20.89;62.23
68701;DHT22;55682;51.114;5.882;2023-07-13T07:20:04;20.88;62.76
68701;DHT22;55682;51.114;5.882;2023-07-13T07:22:30;20.96;62.19
68701;DHT22;55682;51.114;5.882;2023-07-13T07:24:57;21.03;62.39
68701;DHT22;55682;51.114;5.882;2023-07-13T07:27:23;21.11;61.90
68701;DHT22;55682;51.114;5.882;2023-07-13T07:29:49;21.24;61.99
68701;DHT22;55682;51.114;5.882;2023-07-13T07:32:15;21.55;61.42
68701;DHT22;55682;51.114;5.882;2023-07-13T07:34:40;21.77;60.09
68701;DHT22;55682;51.114;5.882;2023-07-13T07:37:06;21.74;59.83
68701;DHT22;55682;51.114;5.882;2023-07-13T07:39:32;21.62;60.22
68701;DHT22;55682;51.114;5.882;2023-07-13T07:41:58;21.61;60.51
68701;DHT22;55682;51.114;5.882;2023-07-13T07:44:23;21.68;60.79
68701;DHT22;55682;51.114;5.882;2023-07-13T07:46:49;21.87;60.06
68701;DHT22;55682;51.114;5.882;2023-07-13T07:49:15;21.98;59.73
68701;DHT22;55682;51.114;5.882;2023-07-13T07:51:41;22.16;59.05
68701;DHT22;55682;51.114;5.882;2023-07-13T07:54:07;22.19;58.69
68701;DHT22;55682;51.114;5.882;2023-07-13T07:56:33;22.11;58.98
68701;DHT22;55682;51.114;5.882;2023-07-13T07:58:58;22.12;58.94
68701;DHT22;55682;51.114;5.882;2023-07-13T08:01:24;22.17;58.73
68701;DHT22;55682;51.114;5.882;2023-07-13T08:03:50;22.29;58.50
68701;DHT22;55682;51.114;5.882;2023-07-13T08:06:16;22.52;57.71
68701;DHT22;55682;51.114;5.882;2023-07-13T08:08:45;22.57;57.29
68701;DHT22;55682;51.114;5.882;2023-07-13T08:11:11;22.51;57.38
68701;DHT22;55682;51.114;5.882;2023-07-13T08:13:37;22.41;57.86
68701;DHT22;55682;51.114;5.882;2023-07-13T08:16:05;22.61;57.88
68701;DHT22;55682;51.114;5.882;2023-07-13T08:18:31;22.71;57.16
68701;DHT22;55682;51.114;5.882;2023-07-13T08:20:57;22.93;56.59
68701;DHT22;55682;51.114;5.882;2023-07-13T08:23:25;23.27;56.03
68701;DHT22;55682;51.114;5.882;2023-07-13T08:25:55;23.68;54.59
68701;DHT22;55682;51.114;5.882;2023-07-13T08:28:21;23.86;53.60
68701;DHT22;55682;51.114;5.882;2023-07-13T08:30:48;23.99;53.25
68701;DHT22;55682;51.114;5.882;2023-07-13T08:33:18;24.44;52.78
68701;DHT22;55682;51.114;5.882;2023-07-13T08:35:48;25.19;50.47
68701;DHT22;55682;51.114;5.882;2023-07-13T08:38:14;25.81;49.43
68701;DHT22;55682;51.114;5.882;2023-07-13T08:40:42;26.78;46.79
68701;DHT22;55682;51.114;5.882;2023-07-13T08:43:17;27.32;44.29
68701;DHT22;55682;51.114;5.882;2023-07-13T08:45:47;27.12;44.22
68701;DHT22;55682;51.114;5.882;2023-07-13T08:50:59;27.81;42.13
68701;DHT22;55682;51.114;5.882;2023-07-13T08:53:39;27.73;41.55
68701;DHT22;55682;51.114;5.882;2023-07-13T08:56:15;27.23;43.51
68701;DHT22;55682;51.114;5.882;2023-07-13T08:58:44;27.50;43.63
68701;DHT22;55682;51.114;5.882;2023-07-13T09:01:33;27.87;41.62
68701;DHT22;55682;51.114;5.882;2023-07-13T09:15:31;29.47;38.17
68701;DHT22;55682;51.114;5.882;2023-07-13T09:18:09;29.31;37.35
68701;DHT22;55682;51.114;5.882;2023-07-13T09:20:54;28.87;39.18
68701;DHT22;55682;51.114;5.882;2023-07-13T09:23:23;29.64;37.48
68701;DHT22;55682;51.114;5.882;2023-07-13T09:25:54;30.39;36.48
68701;DHT22;55682;51.114;5.882;2023-07-13T09:28:27;30.91;35.12
68701;DHT22;55682;51.114;5.882;2023-07-13T09:33:28;31.87;32.91
68701;DHT22;55682;51.114;5.882;2023-07-13T09:35:57;32.35;32.40
68701;DHT22;55682;51.114;5.882;2023-07-13T09:38:27;33.03;31.51
68701;DHT22;55682;51.114;5.882;2023-07-13T09:43:38;34.47;28.21
68701;DHT22;55682;51.114;5.882;2023-07-13T09:46:07;33.26;29.35
68701;DHT22;55682;51.114;5.882;2023-07-13T09:48:45;33.20;29.86
68701;DHT22;55682;51.114;5.882;2023-07-13T09:51:14;32.83;29.79
68701;DHT22;55682;51.114;5.882;2023-07-13T09:53:44;31.10;32.60
68701;DHT22;55682;51.114;5.882;2023-07-13T09:56:27;29.85;35.76
68701;DHT22;55682;51.114;5.882;2023-07-13T09:58:53;30.04;36.13
68701;DHT22;55682;51.114;5.882;2023-07-13T10:01:34;30.85;34.02
68701;DHT22;55682;51.114;5.882;2023-07-13T10:04:00;29.89;35.92
68701;DHT22;55682;51.114;5.882;2023-07-13T10:06:26;29.23;37.42
68701;DHT22;55682;51.114;5.882;2023-07-13T10:08:53;28.28;38.88
68701;DHT22;55682;51.114;5.882;2023-07-13T10:11:22;27.82;40.50
68701;DHT22;55682;51.114;5.882;2023-07-13T10:13:52;27.45;41.45
68701;DHT22;55682;51.114;5.882;2023-07-13T10:16:22;27.94;40.80
68701;DHT22;55682;51.114;5.882;2023-07-13T10:18:51;29.75;37.73
68701;DHT22;55682;51.114;5.882;2023-07-13T10:21:21;31.24;33.93
68701;DHT22;55682;51.114;5.882;2023-07-13T10:23:54;31.41;33.20
68701;DHT22;55682;51.114;5.882;2023-07-13T10:26:31;31.58;32.89
68701;DHT22;55682;51.114;5.882;2023-07-13T10:29:06;31.07;32.99
68701;DHT22;55682;51.114;5.882;2023-07-13T10:31:38;30.80;34.27
68701;DHT22;55682;51.114;5.882;2023-07-13T10:34:04;31.00;33.13
68701;DHT22;55682;51.114;5.882;2023-07-13T10:36:35;30.51;33.86
68701;DHT22;55682;51.114;5.882;2023-07-13T10:39:05;29.91;34.94
68701;DHT22;55682;51.114;5.882;2023-07-13T10:41:38;30.54;34.82
68701;DHT22;55682;51.114;5.882;2023-07-13T10:44:34;31.88;32.31
68701;DHT22;55682;51.114;5.882;2023-07-13T10:47:12;32.28;30.93
68701;DHT22;55682;51.114;5.882;2023-07-13T10:49:41;32.32;29.68
68701;DHT22;55682;51.114;5.882;2023-07-13T10:52:47;32.57;29.23
68701;DHT22;55682;51.114;5.882;2023-07-13T10:58:14;31.81;30.87
68701;DHT22;55682;51.114;5.882;2023-07-13T11:00:48;31.69;31.19
68701;DHT22;55682;51.114;5.882;2023-07-13T11:03:18;31.71;31.21
68701;DHT22;55682;51.114;5.882;2023-07-13T11:05:49;31.73;31.15
68701;DHT22;55682;51.114;5.882;2023-07-13T11:10:57;31.67;30.41
68701;DHT22;55682;51.114;5.882;2023-07-13T11:21:30;29.96;34.12
68701;DHT22;55682;51.114;5.882;2023-07-13T11:24:15;30.55;33.09
68701;DHT22;55682;51.114;5.882;2023-07-13T11:32:00;33.13;27.35
68701;DHT22;55682;51.114;5.882;2023-07-13T11:34:38;32.66;27.40
68701;DHT22;55682;51.114;5.882;2023-07-13T11:37:13;32.49;28.36
68701;DHT22;55682;51.114;5.882;2023-07-13T11:39:43;32.84;27.75
68701;DHT22;55682;51.114;5.882;2023-07-13T11:42:13;33.12;27.55
68701;DHT22;55682;51.114;5.882;2023-07-13T11:44:47;33.40;26.31
68701;DHT22;55682;51.114;5.882;2023-07-13T11:47:21;32.97;26.94
68701;DHT22;55682;51.114;5.882;2023-07-13T11:49:54;33.02;27.37
68701;DHT22;55682;51.114;5.882;2023-07-13T11:52:35;33.15;26.42
68701;DHT22;55682;51.114;5.882;2023-07-13T11:55:16;33.27;25.93
68701;DHT22;55682;51.114;5.882;2023-07-13T11:58:03;33.56;25.69
68701;DHT22;55682;51.114;5.882;2023-07-13T12:00:32;33.30;26.55
68701;DHT22;55682;51.114;5.882;2023-07-13T12:03:01;33.00;27.42
68701;DHT22;55682;51.114;5.882;2023-07-13T12:05:28;33.18;26.97
68701;DHT22;55682;51.114;5.882;2023-07-13T12:07:57;32.56;27.86
68701;DHT22;55682;51.114;5.882;2023-07-13T12:10:28;31.98;28.19
68701;DHT22;55682;51.114;5.882;2023-07-13T12:13:05;31.51;29.03
68701;DHT22;55682;51.114;5.882;2023-07-13T12:15:43;30.97;30.09
68701;DHT22;55682;51.114;5.882;2023-07-13T12:18:19;30.87;31.08
68701;DHT22;55682;51.114;5.882;2023-07-13T12:20:47;31.07;30.54
68701;DHT22;55682;51.114;5.882;2023-07-13T12:23:28;30.94;30.29
68701;DHT22;55682;51.114;5.882;2023-07-13T12:25:55;30.53;30.59
68701;DHT22;55682;51.114;5.882;2023-07-13T12:28:36;30.16;31.77
68701;DHT22;55682;51.114;5.882;2023-07-13T12:31:06;29.65;32.72
68701;DHT22;55682;51.114;5.882;2023-07-13T12:33:33;29.31;33.51
68701;DHT22;55682;51.114;5.882;2023-07-13T12:36:05;29.23;33.82
68701;DHT22;55682;51.114;5.882;2023-07-13T12:38:32;29.24;33.76
68701;DHT22;55682;51.114;5.882;2023-07-13T12:40:58;29.13;34.70
68701;DHT22;55682;51.114;5.882;2023-07-13T12:43:28;29.16;34.43
68701;DHT22;55682;51.114;5.882;2023-07-13T12:46:14;29.22;34.82
68701;DHT22;55682;51.114;5.882;2023-07-13T12:48:43;29.42;34.36
68701;DHT22;55682;51.114;5.882;2023-07-13T12:51:13;29.47;33.39
68701;DHT22;55682;51.114;5.882;2023-07-13T12:53:42;29.28;33.56
68701;DHT22;55682;51.114;5.882;2023-07-13T12:56:21;28.90;34.36
68701;DHT22;55682;51.114;5.882;2023-07-13T12:58:49;28.92;34.50
68701;DHT22;55682;51.114;5.882;2023-07-13T13:01:22;29.09;34.53
68701;DHT22;55682;51.114;5.882;2023-07-13T13:03:51;29.26;33.72
68701;DHT22;55682;51.114;5.882;2023-07-13T13:08:55;28.76;34.28
68701;DHT22;55682;51.114;5.882;2023-07-13T13:11:23;28.47;34.62
68701;DHT22;55682;51.114;5.882;2023-07-13T13:13:50;28.25;35.22
68701;DHT22;55682;51.114;5.882;2023-07-13T13:16:22;28.06;35.44
68701;DHT22;55682;51.114;5.882;2023-07-13T13:18:54;27.91;35.76
68701;DHT22;55682;51.114;5.882;2023-07-13T13:21:24;28.01;36.17
68701;DHT22;55682;51.114;5.882;2023-07-13T13:23:50;28.15;34.54
68701;DHT22;55682;51.114;5.882;2023-07-13T13:26:18;27.94;35.24
68701;DHT22;55682;51.114;5.882;2023-07-13T13:28:45;27.88;35.79
68701;DHT22;55682;51.114;5.882;2023-07-13T13:31:13;27.98;35.82
68701;DHT22;55682;51.114;5.882;2023-07-13T13:33:44;28.21;35.37
68701;DHT22;55682;51.114;5.882;2023-07-13T13:36:17;28.30;35.15
68701;DHT22;55682;51.114;5.882;2023-07-13T13:38:45;28.27;35.08
68701;DHT22;55682;51.114;5.882;2023-07-13T13:41:12;28.27;35.36
68701;DHT22;55682;51.114;5.882;2023-07-13T13:43:40;28.00;37.08
68701;DHT22;55682;51.114;5.882;2023-07-13T13:46:26;27.49;39.93
68701;DHT22;55682;51.114;5.882;2023-07-13T13:48:54;27.06;40.39
68701;DHT22;55682;51.114;5.882;2023-07-13T13:51:23;26.70;41.13
68701;DHT22;55682;51.114;5.882;2023-07-13T13:53:50;26.56;41.48
68701;DHT22;55682;51.114;5.882;2023-07-13T13:56:18;26.54;40.88
68701;DHT22;55682;51.114;5.882;2023-07-13T13:58:44;26.50;40.39
68701;DHT22;55682;51.114;5.882;2023-07-13T14:01:22;26.45;40.10
68701;DHT22;55682;51.114;5.882;2023-07-13T14:03:51;26.40;40.01
68701;DHT22;55682;51.114;5.882;2023-07-13T14:06:17;26.19;41.02
68701;DHT22;55682;51.114;5.882;2023-07-13T14:08:43;25.77;43.52
68701;DHT22;55682;51.114;5.882;2023-07-13T14:11:15;25.38;45.39
68701;DHT22;55682;51.114;5.882;2023-07-13T14:13:49;25.14;46.51
68701;DHT22;55682;51.114;5.882;2023-07-13T14:16:18;24.94;46.94
68701;DHT22;55682;51.114;5.882;2023-07-13T14:18:45;24.76;47.37
68701;DHT22;55682;51.114;5.882;2023-07-13T14:21:16;24.72;47.63
68701;DHT22;55682;51.114;5.882;2023-07-13T14:23:45;24.70;47.79
68701;DHT22;55682;51.114;5.882;2023-07-13T14:26:18;24.66;48.05
68701;DHT22;55682;51.114;5.882;2023-07-13T14:28:47;24.73;48.01
68701;DHT22;55682;51.114;5.882;2023-07-13T14:31:15;24.76;47.80
68701;DHT22;55682;51.114;5.882;2023-07-13T14:33:42;24.78;47.89
68701;DHT22;55682;51.114;5.882;2023-07-13T14:36:28;24.75;47.59
68701;DHT22;55682;51.114;5.882;2023-07-13T14:38:57;24.78;47.27
68701;DHT22;55682;51.114;5.882;2023-07-13T14:41:23;24.72;47.22
68701;DHT22;55682;51.114;5.882;2023-07-13T14:43:50;24.64;47.39
68701;DHT22;55682;51.114;5.882;2023-07-13T14:46:29;24.57;47.37
68701;DHT22;55682;51.114;5.882;2023-07-13T14:49:02;24.51;47.84
68701;DHT22;55682;51.114;5.882;2023-07-13T14:51:30;24.56;47.93
68701;DHT22;55682;51.114;5.882;2023-07-13T14:53:56;24.51;48.25
68701;DHT22;55682;51.114;5.882;2023-07-13T14:56:22;24.58;48.44
68701;DHT22;55682;51.114;5.882;2023-07-13T14:58:47;24.70;48.28
68701;DHT22;55682;51.114;5.882;2023-07-13T15:01:15;24.70;48.20
68701;DHT22;55682;51.114;5.882;2023-07-13T15:03:45;24.68;48.36
68701;DHT22;55682;51.114;5.882;2023-07-13T15:06:12;24.63;48.57
68701;DHT22;55682;51.114;5.882;2023-07-13T15:08:38;24.63;48.47
68701;DHT22;55682;51.114;5.882;2023-07-13T15:11:07;24.71;48.47
68701;DHT22;55682;51.114;5.882;2023-07-13T15:13:33;24.79;48.21
68701;DHT22;55682;51.114;5.882;2023-07-13T15:16:00;24.79;48.25
68701;DHT22;55682;51.114;5.882;2023-07-13T15:18:27;24.85;48.76
68701;DHT22;55682;51.114;5.882;2023-07-13T15:20:54;24.94;48.96
68701;DHT22;55682;51.114;5.882;2023-07-13T15:23:22;24.99;47.79
68701;DHT22;55682;51.114;5.882;2023-07-13T15:25:48;25.05;47.48
68701;DHT22;55682;51.114;5.882;2023-07-13T15:28:15;25.12;46.92
68701;DHT22;55682;51.114;5.882;2023-07-13T15:30:44;25.30;46.31
68701;DHT22;55682;51.114;5.882;2023-07-13T15:33:19;25.49;45.30
68701;DHT22;55682;51.114;5.882;2023-07-13T15:35:48;25.62;44.87
68701;DHT22;55682;51.114;5.882;2023-07-13T15:38:22;25.81;44.09
68701;DHT22;55682;51.114;5.882;2023-07-13T15:40:50;25.97;43.55
68701;DHT22;55682;51.114;5.882;2023-07-13T15:43:17;26.16;43.33
68701;DHT22;55682;51.114;5.882;2023-07-13T15:45:44;26.34;42.93
68701;DHT22;55682;51.114;5.882;2023-07-13T15:48:20;26.42;42.33
68701;DHT22;55682;51.114;5.882;2023-07-13T15:50:52;26.52;41.77
68701;DHT22;55682;51.114;5.882;2023-07-13T15:53:23;26.64;41.62
68701;DHT22;55682;51.114;5.882;2023-07-13T15:55:50;26.76;40.87
68701;DHT22;55682;51.114;5.882;2023-07-13T15:58:17;26.95;40.89
68701;DHT22;55682;51.114;5.882;2023-07-13T16:00:43;26.98;40.38
68701;DHT22;55682;51.114;5.882;2023-07-13T16:03:11;26.91;40.17
68701;DHT22;55682;51.114;5.882;2023-07-13T16:05:37;26.71;40.46
68701;DHT22;55682;51.114;5.882;2023-07-13T16:08:06;26.48;40.99
68701;DHT22;55682;51.114;5.882;2023-07-13T16:10:41;26.28;41.49
68701;DHT22;55682;51.114;5.882;2023-07-13T16:13:14;26.24;42.00
68701;DHT22;55682;51.114;5.882;2023-07-13T16:15:41;26.28;42.00
68701;DHT22;55682;51.114;5.882;2023-07-13T16:18:13;26.49;42.16
68701;DHT22;55682;51.114;5.882;2023-07-13T16:20:43;26.66;41.62
68701;DHT22;55682;51.114;5.882;2023-07-13T16:23:12;26.82;41.43